Time;durP1;ratioP1;P1;durP2;ratioP2;P2;SDS_P1;SDS_P2;PMS_P1;PMS_P2;Temp;Humidity;BMP_temperature;BMP_pressure;BME280_temperature;BME280_humidity;BME280_pressure;Samples;Min_cycle;Max_cycle;Signal;HPM_P1;HPM_P2
2022/09/23 00:00:41;;;;;;;9.68;2.40;;;18.90;99.90;;;;;;5032633;28;20190;-68
2022/09/23 00:03:12;;;;;;;9.55;1.77;;;19.10;99.90;;;;;;5032977;28;20268;-68
2022/09/23 00:05:43;;;;;;;13.65;2.22;;;19.20;99.90;;;;;;5038173;28;20186;-68
2022/09/23 00:08:14;;;;;;;10.02;1.85;;;19.20;99.90;;;;;;5036049;28;20194;-69
2022/09/23 00:10:45;;;;;;;12.73;1.70;;;19.20;99.90;;;;;;5029583;28;20195;-70
2022/09/23 00:13:16;;;;;;;11.57;1.92;;;19.30;99.90;;;;;;5032986;28;20559;-68
2022/09/23 00:15:48;;;;;;;16.85;2.45;;;19.40;99.90;;;;;;5036536;28;20194;-68
2022/09/23 00:18:19;;;;;;;9.07;1.73;;;19.60;99.90;;;;;;5027672;28;20861;-70
2022/09/23 00:20:51;;;;;;;16.10;1.83;;;19.70;99.90;;;;;;5035258;28;20209;-75
2022/09/23 00:23:22;;;;;;;15.25;2.28;;;19.70;99.90;;;;;;5033373;28;20273;-69
2022/09/23 00:25:59;;;;;;;11.57;1.70;;;19.70;99.90;;;;;;5024038;28;20697;-68
2022/09/23 00:28:30;;;;;;;9.48;1.70;;;19.60;99.90;;;;;;5036044;28;20186;-70
2022/09/23 00:31:05;;;;;;;18.05;2.10;;;19.50;99.90;;;;;;5035974;28;20527;-69
2022/09/23 00:33:36;;;;;;;11.63;2.00;;;19.50;99.90;;;;;;5035328;28;20190;-70
2022/09/23 00:36:09;;;;;;;10.55;1.98;;;19.50;99.90;;;;;;5032675;28;20190;-69
2022/09/23 00:38:40;;;;;;;14.85;1.88;;;19.40;99.90;;;;;;5034905;28;22110;-70
2022/09/23 00:41:11;;;;;;;11.40;1.88;;;19.40;99.90;;;;;;5036500;28;20186;-68
2022/09/23 00:43:43;;;;;;;9.95;1.80;;;19.40;99.90;;;;;;5036529;28;20214;-70
2022/09/23 00:46:20;;;;;;;14.05;1.80;;;19.30;99.90;;;;;;5034537;28;20194;-69
2022/09/23 00:48:54;;;;;;;12.52;1.80;;;19.10;99.90;;;;;;5033888;28;20642;-69
2022/09/23 00:51:28;;;;;;;12.23;2.00;;;19.00;99.90;;;;;;5031732;28;20189;-68
2022/09/23 00:53:59;;;;;;;14.68;2.10;;;18.80;99.90;;;;;;5035147;28;20193;-68
2022/09/23 00:56:30;;;;;;;16.60;2.42;;;18.70;99.90;;;;;;5035470;28;20212;-72
2022/09/23 00:59:02;;;;;;;14.63;2.00;;;18.50;99.90;;;;;;5034080;28;20545;-72
2022/09/23 01:01:36;;;;;;;14.85;2.20;;;18.50;99.90;;;;;;5035640;28;20197;-68
2022/09/23 01:04:07;;;;;;;14.35;2.25;;;18.50;99.90;;;;;;5031620;28;20221;-68
2022/09/23 01:06:38;;;;;;;17.27;2.28;;;18.50;99.90;;;;;;5035467;28;20204;-68
2022/09/23 01:09:09;;;;;;;10.13;2.00;;;18.40;99.90;;;;;;5029713;28;20203;-69
2022/09/23 01:11:50;;;;;;;14.93;2.10;;;18.40;99.90;;;;;;5033881;28;20300;-69
2022/09/23 01:14:35;;;;;;;18.42;2.75;;;18.40;99.90;;;;;;5032070;28;20202;-68
2022/09/23 01:17:17;;;;;;;16.30;1.92;;;18.40;99.90;;;;;;5032613;28;20195;-68
2022/09/23 01:20:16;;;;;;;17.40;2.25;;;18.40;99.90;;;;;;5025211;28;20193;-74
2022/09/23 01:22:55;;;;;;;15.63;2.38;;;18.40;99.90;;;;;;5029782;28;20202;-69
2022/09/23 01:25:42;;;;;;;17.52;2.13;;;18.40;99.90;;;;;;5032603;28;20548;-68
2022/09/23 01:28:36;;;;;;;18.92;2.45;;;18.40;99.90;;;;;;5034155;28;20190;-69
2022/09/23 01:31:16;;;;;;;16.77;2.00;;;18.50;99.90;;;;;;5028169;28;20194;-69
2022/09/23 01:33:52;;;;;;;21.55;2.60;;;18.50;99.90;;;;;;5033628;28;20241;-68
2022/09/23 01:36:27;;;;;;;13.13;2.08;;;18.50;99.90;;;;;;5032870;28;20230;-67
2022/09/23 01:39:04;;;;;;;17.95;2.40;;;18.40;99.90;;;;;;5025832;28;20190;-71
2022/09/23 01:41:50;;;;;;;14.02;1.77;;;18.30;99.90;;;;;;5032884;28;20194;-68
2022/09/23 01:44:25;;;;;;;16.17;1.75;;;18.40;99.90;;;;;;5033360;28;20210;-69
2022/09/23 01:47:01;;;;;;;12.82;1.73;;;18.30;99.90;;;;;;5029593;28;20205;-72
2022/09/23 01:49:36;;;;;;;17.02;2.10;;;18.30;99.90;;;;;;5028866;28;20206;-74
2022/09/23 01:52:15;;;;;;;13.20;1.90;;;18.40;99.90;;;;;;5030141;28;20197;-73
2022/09/23 01:54:52;;;;;;;12.23;1.90;;;18.30;99.90;;;;;;5031843;28;20201;-74
2022/09/23 01:57:30;;;;;;;12.15;1.90;;;18.40;99.90;;;;;;5033779;28;20210;-73
2022/09/23 02:00:11;;;;;;;12.65;1.70;;;18.40;99.90;;;;;;5032473;28;20201;-68
2022/09/23 02:02:48;;;;;;;10.55;1.60;;;18.50;99.90;;;;;;5034516;28;20650;-69
2022/09/23 02:05:23;;;;;;;8.45;1.55;;;18.50;99.90;;;;;;5027114;28;20293;-68
2022/09/23 02:07:58;;;;;;;10.30;1.40;;;18.70;99.90;;;;;;5033758;28;20217;-72
2022/09/23 02:10:34;;;;;;;11.48;1.50;;;18.70;99.90;;;;;;5030940;28;20197;-75
2022/09/23 02:13:12;;;;;;;12.63;1.70;;;18.70;99.90;;;;;;5027713;28;20673;-75
2022/09/23 02:15:48;;;;;;;8.65;1.50;;;18.70;99.90;;;;;;5026986;28;20596;-75
2022/09/23 02:18:25;;;;;;;12.25;1.70;;;18.80;99.90;;;;;;5030666;28;20194;-76
2022/09/23 02:21:00;;;;;;;8.77;1.60;;;18.90;99.90;;;;;;5028731;28;20198;-75
2022/09/23 02:23:35;;;;;;;11.55;1.65;;;19.00;99.90;;;;;;5033614;28;20700;-70
2022/09/23 02:26:13;;;;;;;7.53;1.88;;;19.10;99.90;;;;;;5037315;28;20197;-72
2022/09/23 02:28:53;;;;;;;13.70;1.65;;;19.10;99.90;;;;;;5034846;28;20269;-71
2022/09/23 02:31:32;;;;;;;10.68;1.85;;;19.10;99.90;;;;;;5034222;28;20194;-68
2022/09/23 02:34:12;;;;;;;9.80;2.15;;;19.20;99.90;;;;;;5034020;28;20214;-68
2022/09/23 02:36:47;;;;;;;8.30;1.42;;;19.30;99.90;;;;;;5033861;28;20230;-75
2022/09/23 02:39:22;;;;;;;12.45;1.63;;;19.30;99.90;;;;;;5050886;28;20191;-69
2022/09/23 02:42:00;;;;;;;10.60;1.63;;;19.40;99.90;;;;;;5044983;28;20204;-76
2022/09/23 02:44:31;;;;;;;16.83;2.10;;;19.50;99.90;;;;;;5032752;28;20221;-69
2022/09/23 02:47:02;;;;;;;13.45;1.85;;;19.50;99.90;;;;;;5037858;28;20198;-68
2022/09/23 02:49:36;;;;;;;13.05;2.00;;;19.50;99.90;;;;;;5026765;28;20204;-69
2022/09/23 02:52:07;;;;;;;9.57;2.05;;;19.60;99.90;;;;;;5050354;28;20204;-68
2022/09/23 02:54:40;;;;;;;14.18;1.95;;;19.60;99.90;;;;;;5053539;28;20642;-69
2022/09/23 02:57:13;;;;;;;9.45;1.60;;;19.70;99.90;;;;;;5050346;28;20198;-68
2022/09/23 02:59:45;;;;;;;14.07;1.80;;;19.70;99.90;;;;;;5030801;28;20248;-69
2022/09/23 03:02:39;;;;;;;11.25;1.63;;;19.70;99.90;;;;;;5033066;28;20206;-69
2022/09/23 03:05:22;;;;;;;15.07;1.75;;;19.70;99.90;;;;;;5001108;28;20230;-72
2022/09/23 03:08:11;;;;;;;15.38;1.98;;;19.70;99.90;;;;;;5034678;28;20198;-68
2022/09/23 03:10:55;;;;;;;14.45;1.92;;;19.60;99.90;;;;;;5033003;28;20558;-70
2022/09/23 03:13:34;;;;;;;8.52;1.60;;;19.50;99.90;;;;;;5028192;28;20208;-69
2022/09/23 03:16:11;;;;;;;13.90;1.85;;;19.30;99.90;;;;;;5033477;28;20190;-69
2022/09/23 03:18:46;;;;;;;12.80;1.65;;;19.30;99.90;;;;;;5043361;28;20204;-68
2022/09/23 03:21:31;;;;;;;9.85;1.48;;;19.20;99.90;;;;;;5033906;28;20646;-68
2022/09/23 03:24:05;;;;;;;9.35;1.77;;;19.10;99.90;;;;;;5032743;28;20217;-68
2022/09/23 03:26:39;;;;;;;10.27;1.75;;;19.10;99.90;;;;;;5029822;28;20201;-70
2022/09/23 03:29:12;;;;;;;11.05;1.73;;;19.10;99.90;;;;;;5033317;28;20655;-73
2022/09/23 03:31:43;;;;;;;13.68;2.25;;;19.10;99.90;;;;;;5033447;28;20194;-68
2022/09/23 03:34:17;;;;;;;11.27;2.22;;;19.10;99.90;;;;;;5032050;28;20218;-72
2022/09/23 03:36:58;;;;;;;12.23;1.88;;;19.20;99.90;;;;;;5033030;28;20229;-69
2022/09/23 03:39:41;;;;;;;9.75;1.50;;;19.20;99.90;;;;;;5032968;28;20244;-69
2022/09/23 03:42:15;;;;;;;17.45;2.38;;;19.10;99.90;;;;;;5033266;28;20244;-68
2022/09/23 03:44:47;;;;;;;9.30;1.58;;;19.10;99.90;;;;;;5020026;28;20225;-68
2022/09/23 03:47:19;;;;;;;8.63;1.73;;;19.00;99.90;;;;;;5032484;28;20194;-68
2022/09/23 03:49:50;;;;;;;12.20;1.48;;;18.90;99.90;;;;;;5034207;28;20676;-68
2022/09/23 03:52:24;;;;;;;8.18;1.20;;;18.90;99.90;;;;;;5038399;28;20202;-72
2022/09/23 03:54:55;;;;;;;7.40;1.40;;;18.80;99.90;;;;;;5033064;28;20186;-73
2022/09/23 03:57:26;;;;;;;6.88;1.83;;;18.90;99.90;;;;;;5032864;28;20205;-68
2022/09/23 03:59:57;;;;;;;5.13;1.40;;;18.80;99.90;;;;;;5031824;28;20198;-74
2022/09/23 04:02:28;;;;;;;9.18;1.45;;;18.80;99.90;;;;;;5032668;28;20191;-70
2022/09/23 04:04:58;;;;;;;14.45;1.75;;;18.80;99.90;;;;;;5026227;28;20219;-68
2022/09/23 04:07:31;;;;;;;13.57;1.75;;;18.80;99.90;;;;;;5038914;28;20198;-68
2022/09/23 04:10:02;;;;;;;7.60;1.27;;;18.90;99.90;;;;;;5013417;28;20191;-68
2022/09/23 04:12:32;;;;;;;9.73;1.70;;;18.90;99.90;;;;;;5013228;28;20564;-67
2022/09/23 04:15:03;;;;;;;7.93;1.50;;;18.90;99.90;;;;;;5013187;28;20193;-68
2022/09/23 04:17:34;;;;;;;11.55;1.60;;;18.90;99.90;;;;;;5013314;28;20601;-71
2022/09/23 04:20:05;;;;;;;8.90;1.60;;;18.90;99.90;;;;;;5021833;28;20198;-71
2022/09/23 04:22:38;;;;;;;10.60;1.33;;;18.90;99.90;;;;;;5032080;28;20198;-72
2022/09/23 04:25:09;;;;;;;6.32;1.40;;;19.00;99.90;;;;;;5029299;28;20219;-68
2022/09/23 04:27:40;;;;;;;6.68;1.40;;;19.00;99.90;;;;;;5032917;28;20209;-70
2022/09/23 04:30:11;;;;;;;8.25;1.67;;;19.10;99.90;;;;;;5033131;28;20213;-69
2022/09/23 04:32:42;;;;;;;9.00;1.27;;;19.30;99.90;;;;;;5031531;28;20551;-69
2022/09/23 04:35:13;;;;;;;12.20;1.88;;;19.30;99.90;;;;;;5031540;28;20596;-70
2022/09/23 04:37:48;;;;;;;11.23;1.75;;;19.40;99.90;;;;;;5032606;28;20234;-74
2022/09/23 04:40:19;;;;;;;15.50;2.08;;;19.50;99.90;;;;;;5031801;28;20194;-73
2022/09/23 04:42:50;;;;;;;13.05;1.70;;;19.60;99.90;;;;;;5031641;28;20202;-70
2022/09/23 04:45:21;;;;;;;10.48;1.85;;;19.60;99.90;;;;;;5032065;28;20218;-72
2022/09/23 04:47:51;;;;;;;9.82;1.40;;;19.60;99.90;;;;;;5032615;28;20194;-71
2022/09/23 04:50:22;;;;;;;11.00;1.67;;;19.60;99.90;;;;;;5032488;28;20195;-70
2022/09/23 04:52:55;;;;;;;8.55;1.50;;;19.50;99.90;;;;;;5053740;28;20189;-74
2022/09/23 04:55:26;;;;;;;7.30;1.75;;;19.60;99.90;;;;;;5050270;28;20190;-75
2022/09/23 04:57:56;;;;;;;8.90;1.80;;;19.60;99.90;;;;;;5035472;28;20205;-75
2022/09/23 05:00:28;;;;;;;7.47;1.50;;;19.60;99.90;;;;;;5034485;28;20202;-72
2022/09/23 05:02:58;;;;;;;11.85;1.73;;;19.70;99.90;;;;;;5042482;28;20202;-72
2022/09/23 05:05:29;;;;;;;9.93;1.52;;;19.70;99.90;;;;;;5035070;28;20228;-69
2022/09/23 05:08:02;;;;;;;11.68;1.52;;;19.70;99.90;;;;;;5035294;28;20203;-69
2022/09/23 05:10:33;;;;;;;12.60;1.88;;;19.70;99.90;;;;;;5035054;28;20281;-70
2022/09/23 05:13:03;;;;;;;6.88;1.40;;;19.60;99.90;;;;;;5016152;28;20191;-75
2022/09/23 05:15:34;;;;;;;10.70;1.38;;;19.60;99.90;;;;;;5015789;28;20186;-74
2022/09/23 05:18:05;;;;;;;10.43;1.60;;;19.60;99.90;;;;;;5033060;28;20214;-76
2022/09/23 05:20:35;;;;;;;11.20;1.83;;;19.50;99.90;;;;;;5040807;28;20206;-70
2022/09/23 05:23:08;;;;;;;11.77;1.50;;;19.50;99.90;;;;;;5016004;28;20201;-68
2022/09/23 05:25:41;;;;;;;10.30;1.40;;;19.60;99.90;;;;;;5022015;28;20210;-70
2022/09/23 05:28:12;;;;;;;9.35;2.03;;;19.50;99.90;;;;;;5040738;28;20637;-68
2022/09/23 05:30:43;;;;;;;10.25;1.48;;;19.50;99.90;;;;;;5038878;28;20195;-68
2022/09/23 05:33:14;;;;;;;10.60;1.70;;;19.50;99.90;;;;;;5035127;28;20561;-70
2022/09/23 05:35:49;;;;;;;11.93;1.77;;;19.40;99.90;;;;;;5035439;28;20654;-68
2022/09/23 05:38:22;;;;;;;13.13;1.50;;;19.40;99.90;;;;;;5042995;28;20190;-68
2022/09/23 05:40:58;;;;;;;9.23;1.40;;;19.40;99.90;;;;;;5035469;28;20198;-67
2022/09/23 05:43:29;;;;;;;14.00;1.85;;;19.30;99.90;;;;;;5035387;28;20186;-67
2022/09/23 05:46:05;;;;;;;12.90;1.83;;;19.30;99.90;;;;;;5035072;28;20704;-67
2022/09/23 05:48:36;;;;;;;18.52;1.75;;;19.30;99.90;;;;;;5035208;28;20194;-70
2022/09/23 05:51:11;;;;;;;11.50;1.50;;;19.20;99.90;;;;;;5034107;28;20683;-68
2022/09/23 05:53:44;;;;;;;18.70;2.10;;;19.20;99.90;;;;;;5034987;28;20194;-68
2022/09/23 05:56:17;;;;;;;10.88;1.48;;;19.20;99.90;;;;;;5034880;28;20256;-69
2022/09/23 05:58:49;;;;;;;9.85;1.83;;;19.20;99.90;;;;;;5034702;28;20593;-68
2022/09/23 06:01:23;;;;;;;13.50;1.77;;;19.20;99.90;;;;;;5035117;28;20216;-68
2022/09/23 06:03:55;;;;;;;10.35;1.70;;;19.20;99.90;;;;;;5034630;28;20621;-68
2022/09/23 06:06:29;;;;;;;10.48;1.42;;;19.20;99.90;;;;;;5034978;28;20226;-68
2022/09/23 06:09:02;;;;;;;15.20;1.60;;;19.20;99.90;;;;;;5034899;28;20189;-69
2022/09/23 06:11:34;;;;;;;11.32;1.73;;;19.20;99.90;;;;;;5033890;28;20212;-68
2022/09/23 06:14:05;;;;;;;10.30;1.52;;;19.20;99.90;;;;;;5038480;28;20194;-69
2022/09/23 06:16:36;;;;;;;12.75;1.88;;;19.20;99.90;;;;;;5034709;28;20194;-71
2022/09/23 06:19:08;;;;;;;17.48;2.67;;;19.10;99.90;;;;;;5034763;28;20194;-67
2022/09/23 06:21:40;;;;;;;10.57;1.50;;;19.20;99.90;;;;;;5034673;28;20190;-68
2022/09/23 06:24:13;;;;;;;12.05;1.70;;;19.10;99.90;;;;;;5034662;28;20197;-70
2022/09/23 06:26:44;;;;;;;15.13;2.15;;;19.20;99.90;;;;;;5030917;28;20209;-68
2022/09/23 06:29:15;;;;;;;12.18;1.77;;;19.20;99.90;;;;;;5034188;28;20186;-66
2022/09/23 06:31:45;;;;;;;12.30;1.65;;;19.20;99.90;;;;;;5034449;28;20633;-68
2022/09/23 06:34:16;;;;;;;15.15;1.67;;;19.20;99.90;;;;;;5034002;28;20230;-68
2022/09/23 06:36:47;;;;;;;12.50;1.60;;;19.20;99.90;;;;;;5034143;28;20244;-69
2022/09/23 06:39:19;;;;;;;13.85;1.80;;;19.20;99.90;;;;;;5034208;28;20190;-67
2022/09/23 06:41:50;;;;;;;13.02;1.83;;;19.20;99.90;;;;;;5051938;28;20193;-69
2022/09/23 06:44:21;;;;;;;12.07;1.80;;;19.10;99.90;;;;;;5054160;28;20201;-67
2022/09/23 06:46:53;;;;;;;14.18;1.90;;;19.10;99.90;;;;;;5054163;28;20189;-68
2022/09/23 06:49:24;;;;;;;14.38;2.10;;;19.00;99.90;;;;;;5042450;28;20199;-68
2022/09/23 06:51:55;;;;;;;12.98;2.10;;;19.00;99.90;;;;;;5034032;28;20646;-67
2022/09/23 06:54:28;;;;;;;15.27;2.42;;;18.90;99.90;;;;;;5034230;28;20191;-68
2022/09/23 06:56:58;;;;;;;16.80;2.97;;;18.80;99.90;;;;;;5032937;28;20202;-67
2022/09/23 06:59:29;;;;;;;18.83;3.67;;;18.80;99.90;;;;;;5033572;28;20195;-67
2022/09/23 07:02:00;;;;;;;15.63;3.60;;;18.80;99.90;;;;;;5032473;28;20547;-68
2022/09/23 07:04:31;;;;;;;20.55;3.25;;;18.80;99.90;;;;;;5031645;28;20204;-69
2022/09/23 07:07:01;;;;;;;16.58;3.10;;;18.80;99.90;;;;;;5028453;28;20204;-67
2022/09/23 07:09:34;;;;;;;12.63;2.28;;;18.70;99.90;;;;;;5035345;28;20198;-68
2022/09/23 07:12:05;;;;;;;16.15;2.38;;;18.70;99.90;;;;;;5033504;28;20196;-67
2022/09/23 07:14:35;;;;;;;17.40;2.72;;;18.70;99.90;;;;;;5033019;28;20194;-68
2022/09/23 07:17:06;;;;;;;15.73;2.97;;;18.70;99.90;;;;;;5033644;28;20194;-72
2022/09/23 07:19:37;;;;;;;12.32;2.33;;;18.70;99.90;;;;;;5033784;28;20205;-74
2022/09/23 07:22:08;;;;;;;15.43;2.35;;;18.60;99.90;;;;;;5033218;28;20560;-72
2022/09/23 07:24:40;;;;;;;20.20;2.95;;;18.60;99.90;;;;;;5035181;28;20571;-69
2022/09/23 07:27:13;;;;;;;10.90;2.00;;;18.60;99.90;;;;;;5033426;28;20642;-68
2022/09/23 07:29:43;;;;;;;14.90;2.20;;;18.60;99.90;;;;;;5030503;28;20201;-68
2022/09/23 07:32:14;;;;;;;17.60;2.50;;;18.50;99.90;;;;;;5033386;28;20200;-68
2022/09/23 07:34:46;;;;;;;15.60;2.20;;;18.50;99.90;;;;;;5032943;28;20221;-69
2022/09/23 07:37:17;;;;;;;14.52;2.38;;;18.50;99.90;;;;;;5033281;28;20724;-69
2022/09/23 07:39:49;;;;;;;15.65;1.88;;;18.40;99.90;;;;;;5037232;28;20198;-68
2022/09/23 07:42:20;;;;;;;12.15;2.13;;;18.40;99.90;;;;;;5033239;28;20331;-68
2022/09/23 07:44:54;;;;;;;10.73;1.92;;;18.40;99.90;;;;;;5033265;28;20406;-68
2022/09/23 07:47:24;;;;;;;14.30;2.20;;;18.40;99.90;;;;;;5033134;28;20190;-68
2022/09/23 07:49:55;;;;;;;18.13;2.20;;;18.30;99.90;;;;;;5026984;28;20650;-72
2022/09/23 07:52:26;;;;;;;13.95;2.10;;;18.30;99.90;;;;;;5033211;28;20190;-69
2022/09/23 07:54:58;;;;;;;13.10;2.05;;;18.30;99.90;;;;;;5033015;28;20634;-70
2022/09/23 07:57:29;;;;;;;14.30;2.63;;;18.20;99.90;;;;;;5027666;28;20198;-71
2022/09/23 08:00:01;;;;;;;17.90;2.42;;;18.20;99.90;;;;;;5029170;28;20564;-69
2022/09/23 08:02:31;;;;;;;11.95;2.20;;;18.10;99.90;;;;;;5032654;28;20290;-69
2022/09/23 08:05:02;;;;;;;17.10;2.25;;;18.10;99.90;;;;;;5038364;28;20190;-69
2022/09/23 08:07:33;;;;;;;15.60;1.90;;;18.10;99.90;;;;;;5052596;28;20233;-70
2022/09/23 08:10:06;;;;;;;13.65;1.77;;;18.10;99.90;;;;;;5046899;28;20198;-69
2022/09/23 08:12:38;;;;;;;14.38;2.72;;;18.10;99.90;;;;;;5028796;28;20556;-68
2022/09/23 08:15:09;;;;;;;12.23;1.83;;;18.10;99.90;;;;;;5032923;28;20186;-69
2022/09/23 08:17:40;;;;;;;14.85;2.25;;;18.10;99.90;;;;;;5032491;28;20654;-69
2022/09/23 08:20:42;;;;;;;15.50;2.13;;;18.00;99.90;;;;;;5023384;28;20570;-69
2022/09/23 08:23:03;;;;;;;15.68;2.33;;;18.00;99.90;;;;;;5032704;28;20257;-67
2022/09/23 08:25:36;;;;;;;14.52;2.03;;;18.00;99.90;;;;;;5033783;28;20230;-68
2022/09/23 08:28:06;;;;;;;15.25;2.40;;;18.00;99.90;;;;;;5033661;28;20209;-70
2022/09/23 08:30:37;;;;;;;15.38;2.10;;;18.00;99.90;;;;;;5027163;28;20628;-67
2022/09/23 08:33:08;;;;;;;13.25;1.90;;;18.00;99.90;;;;;;5035066;28;20693;-68
2022/09/23 08:35:39;;;;;;;10.90;1.80;;;18.00;99.90;;;;;;5049541;28;20194;-68
2022/09/23 08:38:09;;;;;;;14.13;1.80;;;18.00;99.90;;;;;;5040153;28;20233;-68
2022/09/23 08:40:46;;;;;;;11.25;1.85;;;18.00;99.90;;;;;;5035498;28;20220;-68
2022/09/23 08:43:25;;;;;;;11.35;1.95;;;18.00;99.90;;;;;;5038200;28;20328;-70
2022/09/23 08:45:58;;;;;;;12.57;1.90;;;18.00;99.90;;;;;;5018444;28;20236;-69
2022/09/23 08:48:32;;;;;;;12.60;2.60;;;18.00;99.90;;;;;;5039273;28;20198;-68
2022/09/23 08:51:06;;;;;;;15.15;2.10;;;18.00;99.90;;;;;;5033135;28;20202;-68
2022/09/23 08:53:38;;;;;;;19.52;2.33;;;18.00;99.90;;;;;;5039382;28;20648;-68
2022/09/23 08:56:16;;;;;;;15.60;2.13;;;18.00;99.90;;;;;;5031047;28;20625;-70
2022/09/23 08:59:01;;;;;;;12.43;2.05;;;18.00;99.90;;;;;;5034009;28;20194;-72
2022/09/23 09:01:38;;;;;;;14.98;2.20;;;18.00;99.90;;;;;;5036949;28;20191;-70
2022/09/23 09:04:18;;;;;;;11.07;1.92;;;18.00;99.90;;;;;;5033437;28;20200;-73
2022/09/23 09:06:53;;;;;;;14.98;2.17;;;17.90;99.90;;;;;;5037542;28;20221;-74
2022/09/23 09:09:31;;;;;;;10.85;2.03;;;17.90;99.90;;;;;;5027696;28;20220;-75
2022/09/23 09:12:11;;;;;;;13.73;1.80;;;17.90;99.90;;;;;;5032354;28;20194;-69
2022/09/23 09:14:51;;;;;;;9.05;1.70;;;17.90;99.90;;;;;;5035404;28;20206;-70
2022/09/23 09:17:31;;;;;;;17.05;2.50;;;17.90;99.90;;;;;;5035171;28;20202;-69
2022/09/23 09:20:08;;;;;;;12.60;1.98;;;17.90;99.90;;;;;;5037056;28;21952;-69
2022/09/23 09:22:51;;;;;;;14.07;1.92;;;17.90;99.90;;;;;;5032328;28;20198;-69
2022/09/23 09:25:39;;;;;;;11.88;1.70;;;17.90;99.90;;;;;;5016062;28;20559;-70
2022/09/23 09:28:21;;;;;;;11.25;2.45;;;17.90;99.90;;;;;;5032187;28;20194;-72
2022/09/23 09:30:55;;;;;;;8.32;1.65;;;17.90;99.90;;;;;;5033437;28;20198;-67
2022/09/23 09:33:33;;;;;;;13.75;1.70;;;17.90;99.90;;;;;;5034422;28;20217;-73
2022/09/23 09:36:16;;;;;;;11.45;1.65;;;17.90;99.90;;;;;;5033365;28;20206;-69
2022/09/23 09:38:47;;;;;;;13.27;1.88;;;17.90;99.90;;;;;;5033112;28;20567;-70
2022/09/23 09:41:20;;;;;;;12.07;1.95;;;17.90;99.90;;;;;;5034524;28;20653;-74
2022/09/23 09:43:58;;;;;;;14.55;1.88;;;17.90;99.90;;;;;;5033479;28;20194;-69
2022/09/23 09:46:53;;;;;;;11.60;1.70;;;17.90;99.90;;;;;;5031060;28;20225;-73
2022/09/23 09:49:33;;;;;;;12.98;2.10;;;17.90;99.90;;;;;;5032060;28;20253;-69
2022/09/23 09:52:24;;;;;;;11.05;1.80;;;17.90;99.90;;;;;;5034158;28;20190;-69
2022/09/23 09:55:01;;;;;;;18.63;2.20;;;17.90;99.90;;;;;;5021386;28;20565;-69
2022/09/23 09:57:41;;;;;;;10.55;1.90;;;17.90;99.90;;;;;;5029909;28;20282;-68
2022/09/23 10:00:38;;;;;;;13.57;1.85;;;17.90;99.90;;;;;;5033594;28;20654;-69
2022/09/23 10:03:31;;;;;;;11.48;2.00;;;17.90;99.90;;;;;;5034057;28;20228;-73
2022/09/23 10:06:14;;;;;;;18.65;2.17;;;17.90;99.90;;;;;;5043097;28;20228;-70
2022/09/23 10:09:03;;;;;;;10.35;1.58;;;17.90;99.90;;;;;;5023682;28;20562;-71
2022/09/23 10:11:35;;;;;;;13.32;1.80;;;17.90;99.90;;;;;;5032850;28;20190;-71
2022/09/23 10:14:13;;;;;;;14.45;1.98;;;17.90;99.90;;;;;;5034382;28;20611;-69
2022/09/23 10:16:47;;;;;;;12.68;2.25;;;17.90;99.90;;;;;;5031653;28;20632;-74
2022/09/23 10:19:27;;;;;;;12.23;1.98;;;17.90;99.90;;;;;;5029535;28;20646;-69
2022/09/23 10:22:00;;;;;;;13.65;1.83;;;17.90;99.90;;;;;;5031412;28;20206;-71
2022/09/23 10:24:35;;;;;;;16.52;2.30;;;18.00;99.90;;;;;;5031880;28;20204;-69
2022/09/23 10:27:08;;;;;;;11.73;1.85;;;17.90;99.90;;;;;;5032006;28;20221;-73
2022/09/23 10:29:42;;;;;;;16.23;2.92;;;17.90;99.90;;;;;;5036379;28;20202;-72
2022/09/23 10:32:36;;;;;;;10.93;1.88;;;17.90;99.90;;;;;;5030461;28;20202;-70
2022/09/23 10:35:17;;;;;;;14.98;2.20;;;17.90;99.90;;;;;;5031018;28;20214;-68
2022/09/23 10:37:50;;;;;;;13.30;2.28;;;17.90;99.90;;;;;;5023436;28;20234;-69
2022/09/23 10:46:44;;;;;;;19.45;2.50;;;17.90;99.90;;;;;;5028901;28;20209;-70
2022/09/23 10:49:56;;;;;;;15.27;2.67;;;17.80;99.90;;;;;;5030361;28;20229;-70
2022/09/23 10:52:56;;;;;;;14.98;2.40;;;17.90;99.90;;;;;;5010041;28;20205;-68
2022/09/23 10:55:40;;;;;;;19.42;2.50;;;17.80;99.90;;;;;;5033405;28;20203;-72
2022/09/23 10:58:29;;;;;;;19.85;3.15;;;17.80;99.90;;;;;;5032172;28;20201;-70
2022/09/23 11:01:13;;;;;;;14.30;2.10;;;17.80;99.90;;;;;;5036225;28;20205;-72
2022/09/23 11:04:15;;;;;;;18.25;2.45;;;17.80;99.90;;;;;;5032554;28;20198;-71
2022/09/23 11:07:01;;;;;;;14.82;2.20;;;17.80;99.90;;;;;;5033229;28;20287;-72
2022/09/23 11:09:41;;;;;;;11.85;2.17;;;17.80;99.90;;;;;;5031275;28;20201;-70
2022/09/23 11:12:22;;;;;;;14.35;2.47;;;17.80;99.90;;;;;;5031490;28;20197;-70
2022/09/23 11:15:22;;;;;;;16.80;1.98;;;17.70;99.90;;;;;;5025244;28;20524;-69
2022/09/23 11:18:15;;;;;;;15.52;2.38;;;17.80;99.90;;;;;;5032095;28;20206;-70
2022/09/23 11:20:55;;;;;;;16.27;2.17;;;17.80;99.90;;;;;;5031854;28;20758;-69
2022/09/23 11:23:56;;;;;;;13.27;2.10;;;17.80;99.90;;;;;;5030277;28;20198;-69
2022/09/23 11:26:36;;;;;;;14.02;2.05;;;17.80;99.90;;;;;;5034630;28;20284;-68
2022/09/23 11:29:26;;;;;;;13.57;1.98;;;17.70;99.90;;;;;;5033597;28;20197;-69
2022/09/23 11:32:09;;;;;;;16.95;2.20;;;17.70;99.90;;;;;;5031210;28;20198;-70
2022/09/23 11:35:02;;;;;;;13.85;2.10;;;17.70;99.90;;;;;;5031392;28;20239;-71
2022/09/23 11:37:37;;;;;;;21.30;2.22;;;17.70;99.90;;;;;;5032247;28;20640;-68
2022/09/23 11:40:19;;;;;;;18.98;2.85;;;17.70;99.90;;;;;;5030853;28;20584;-73
2022/09/23 11:42:59;;;;;;;18.17;2.38;;;17.70;99.90;;;;;;5024836;28;20191;-68
2022/09/23 11:45:32;;;;;;;13.30;2.63;;;17.60;99.90;;;;;;5032717;28;20194;-72
2022/09/23 11:48:08;;;;;;;14.35;2.28;;;17.60;99.90;;;;;;5032153;28;20217;-68
2022/09/23 11:50:43;;;;;;;14.77;2.53;;;17.60;99.90;;;;;;5032976;28;20672;-70
2022/09/23 11:53:20;;;;;;;17.70;2.28;;;17.70;99.90;;;;;;5027160;28;20186;-70
2022/09/23 11:56:02;;;;;;;14.10;2.67;;;17.60;99.90;;;;;;5030732;28;20186;-68
2022/09/23 11:58:39;;;;;;;13.55;2.90;;;17.60;99.90;;;;;;5032904;28;20636;-69
2022/09/23 12:01:14;;;;;;;12.55;2.97;;;17.60;99.90;;;;;;5033869;28;20190;-68
2022/09/23 12:03:52;;;;;;;16.02;3.15;;;17.60;99.90;;;;;;5026821;28;20197;-68
2022/09/23 12:06:25;;;;;;;17.02;2.70;;;17.60;99.90;;;;;;5036220;28;20217;-68
2022/09/23 12:09:00;;;;;;;15.20;3.30;;;17.60;99.90;;;;;;5037142;28;20203;-68
2022/09/23 12:11:41;;;;;;;12.52;2.97;;;17.60;99.90;;;;;;5036788;28;20190;-68
2022/09/23 12:14:20;;;;;;;14.82;2.95;;;17.60;99.90;;;;;;5035348;28;20190;-69
2022/09/23 12:17:16;;;;;;;16.33;3.05;;;17.60;99.90;;;;;;5034482;28;20186;-72
2022/09/23 12:20:14;;;;;;;14.88;2.90;;;17.60;99.90;;;;;;5037339;28;20670;-71
2022/09/23 12:22:57;;;;;;;15.32;3.17;;;17.60;99.90;;;;;;5045342;28;20194;-70
2022/09/23 12:25:42;;;;;;;14.68;2.80;;;17.60;99.90;;;;;;5045281;28;20193;-68
2022/09/23 12:28:19;;;;;;;13.50;3.00;;;17.60;99.90;;;;;;5038315;28;20271;-68
2022/09/23 12:30:51;;;;;;;14.18;3.15;;;17.60;99.90;;;;;;5035928;28;20193;-70
2022/09/23 12:33:26;;;;;;;29.83;14.70;;;17.60;99.90;;;;;;5034061;28;20234;-66
2022/09/23 12:35:57;;;;;;;26.65;13.48;;;17.60;99.90;;;;;;5026677;28;20244;-68
2022/09/23 12:38:34;;;;;;;14.60;4.10;;;17.60;99.90;;;;;;5036498;28;20256;-70
2022/09/23 12:41:19;;;;;;;50.70;33.53;;;17.60;99.90;;;;;;5026927;28;20191;-72
2022/09/23 12:43:56;;;;;;;28.00;9.30;;;17.60;99.90;;;;;;5032563;28;20198;-75
2022/09/23 12:46:27;;;;;;;21.75;7.05;;;17.60;99.90;;;;;;5035734;28;20205;-73
2022/09/23 12:49:06;;;;;;;20.52;8.75;;;17.60;99.90;;;;;;5042443;28;20206;-72
2022/09/23 12:51:38;;;;;;;24.02;7.78;;;17.70;99.90;;;;;;5016635;28;20195;-74
2022/09/23 12:54:24;;;;;;;69.68;47.92;;;17.60;99.90;;;;;;5031334;28;20450;-71
2022/09/23 12:57:06;;;;;;;18.70;6.97;;;17.60;99.90;;;;;;5041021;28;20197;-75
2022/09/23 12:59:59;;;;;;;18.20;5.32;;;17.60;99.90;;;;;;5049224;28;20198;-69
2022/09/23 13:02:35;;;;;;;16.10;5.03;;;17.60;99.90;;;;;;5036080;28;20199;-76
2022/09/23 13:08:13;;;;;;;13.65;4.22;;;17.60;99.90;;;;;;5035221;28;20213;-70
2022/09/23 13:10:50;;;;;;;17.75;5.28;;;17.60;99.90;;;;;;5035131;28;20193;-76
2022/09/23 13:13:28;;;;;;;16.08;4.95;;;17.50;99.90;;;;;;5032940;28;20198;-74
2022/09/23 13:16:13;;;;;;;12.90;5.13;;;17.60;99.90;;;;;;5033384;28;20239;-74
2022/09/23 13:19:00;;;;;;;17.00;4.50;;;17.50;99.90;;;;;;5021697;28;20198;-74
2022/09/23 13:22:02;;;;;;;14.98;4.80;;;17.50;99.90;;;;;;5032367;28;20199;-74
2022/09/23 13:24:47;;;;;;;15.38;4.70;;;17.60;99.90;;;;;;5046417;28;20198;-73
2022/09/23 13:27:34;;;;;;;14.55;4.72;;;17.50;99.90;;;;;;5034715;28;20217;-70
2022/09/23 13:30:08;;;;;;;17.20;4.75;;;17.60;99.90;;;;;;5021506;28;20194;-72
2022/09/23 13:32:47;;;;;;;22.30;5.20;;;17.50;99.90;;;;;;5035214;28;20189;-73